Time;durP1;ratioP1;P1;durP2;ratioP2;P2;SDS_P1;SDS_P2;PMS_P1;PMS_P2;Temp;Humidity;BMP_temperature;BMP_pressure;BME280_temperature;BME280_humidity;BME280_pressure;Samples;Min_cycle;Max_cycle;Signal;HPM_P1;HPM_P2
2023/10/23 15:13:58;;;;;;;;;;;16.70;87.10;;;;;;5073042;28;19925;-95
2023/10/23 15:16:23;;;;;;;;;;;16.50;88.90;;;;;;5054334;28;19959;-93
2023/10/23 15:18:52;;;;;;;;;;;16.50;90.10;;;;;;5054456;28;20019;-92
2023/10/23 15:21:18;;;;;;;;;;;16.50;90.60;;;;;;5049463;28;20012;-92
2023/10/23 15:23:43;;;;;;;;;;;16.50;91.10;;;;;;5056005;28;20010;-93
2023/10/23 15:26:09;;;;;;;;;;;16.60;91.50;;;;;;5063589;28;20426;-93
2023/10/23 15:28:34;;;;;;;;;;;16.60;91.60;;;;;;5052081;28;19955;-91
2023/10/23 15:31:01;;;;;;;;;;;16.70;91.90;;;;;;5053495;28;19913;-92
2023/10/23 15:33:27;;;;;;;;;;;16.70;92.00;;;;;;5048309;28;19916;-93
2023/10/23 15:35:55;;;;;;;;;;;16.70;92.20;;;;;;5033087;28;20269;-93
2023/10/23 15:38:21;;;;;;;;;;;16.70;92.50;;;;;;5050259;28;19948;-95
2023/10/23 15:40:50;;;;;;;;;;;16.70;92.70;;;;;;5053398;28;20007;-95
2023/10/23 15:43:17;;;;;;;;;;;16.70;92.90;;;;;;5049229;28;19919;-92
2023/10/23 15:45:44;;;;;;;;;;;16.80;93.00;;;;;;5049148;28;19916;-93
2023/10/23 15:48:09;;;;;;;;;;;16.70;93.10;;;;;;5050694;28;19915;-92
2023/10/23 15:50:35;;;;;;;;;;;16.70;93.20;;;;;;5041296;28;19913;-94
2023/10/23 15:53:02;;;;;;;;;;;16.70;93.00;;;;;;5052898;28;19916;-93
2023/10/23 15:55:28;;;;;;;;;;;16.70;93.20;;;;;;5073874;28;19913;-93
2023/10/23 15:57:54;;;;;;;;;;;16.70;93.30;;;;;;5043812;28;19946;-91
2023/10/23 16:00:19;;;;;;;;;;;16.70;93.40;;;;;;5051089;28;20371;-91
2023/10/23 16:02:45;;;;;;;;;;;16.70;93.50;;;;;;5040985;28;19921;-94
2023/10/23 16:05:10;;;;;;;;;;;16.70;93.40;;;;;;5032759;28;20273;-92
2023/10/23 16:07:36;;;;;;;;;;;16.70;93.60;;;;;;5032978;28;19920;-94
2023/10/23 16:10:04;;;;;;;;;;;16.60;93.90;;;;;;5047325;28;20354;-94
2023/10/23 16:12:29;;;;;;;;;;;16.60;93.90;;;;;;5043632;28;20005;-94
2023/10/23 16:14:55;;;;;;;;;;;16.60;93.90;;;;;;5057483;28;19912;-92
2023/10/23 16:17:20;;;;;;;;;;;16.50;93.90;;;;;;5069325;28;19908;-94
2023/10/23 16:19:46;;;;;;;;;;;16.50;94.10;;;;;;5045973;28;19909;-95
2023/10/23 16:22:12;;;;;;;;;;;16.50;94.20;;;;;;5050982;28;20416;-93
2023/10/23 16:24:38;;;;;;;;;;;16.40;94.20;;;;;;5026587;28;19917;-95
2023/10/23 16:27:04;;;;;;;;;;;16.40;94.40;;;;;;5027514;28;19917;-92
2023/10/23 16:29:30;;;;;;;;;;;16.30;94.20;;;;;;5023787;28;20336;-95
2023/10/23 16:31:55;;;;;;;;;;;16.30;94.40;;;;;;5051991;28;19959;-94
2023/10/23 16:34:25;;;;;;;;;;;16.30;94.40;;;;;;5047300;28;19912;-95
2023/10/23 16:36:54;;;;;;;;;;;16.20;94.50;;;;;;5061313;28;19909;-93
2023/10/23 16:39:30;;;;;;;;;;;16.20;94.50;;;;;;5034046;28;19901;-95
2023/10/23 16:41:56;;;;;;;;;;;16.20;94.60;;;;;;5079794;28;19917;-95
2023/10/23 16:44:21;;;;;;;;;;;16.10;94.50;;;;;;5056775;28;19908;-95
2023/10/23 16:46:52;;;;;;;;;;;16.10;94.60;;;;;;5023375;28;19917;-95
2023/10/23 16:49:18;;;;;;;;;;;16.10;94.80;;;;;;5111400;23;19964;-96
2023/10/23 16:51:43;;;;;;;;;;;16.10;94.90;;;;;;4995999;28;20295;-94
2023/10/23 16:54:08;;;;;;;;;;;16.00;95.10;;;;;;4997811;28;20296;-92
2023/10/23 16:56:34;;;;;;;;;;;16.00;95.10;;;;;;5009691;28;19914;-93
2023/10/23 16:58:59;;;;;;;;;;;16.00;95.10;;;;;;4996688;28;19910;-92
2023/10/23 17:01:25;;;;;;;;;;;16.00;95.20;;;;;;4997444;28;20378;-94
2023/10/23 17:03:51;;;;;;;;;;;16.00;95.20;;;;;;4999438;28;19924;-95
2023/10/23 17:06:26;;;;;;;;;;;16.00;95.20;;;;;;5017826;28;19914;-96
2023/10/23 17:09:05;;;;;;;;;;;16.00;95.20;;;;;;5002857;28;19921;-95
2023/10/23 17:11:56;;;;;;;;;;;16.00;95.10;;;;;;5246697;23;19929;-94
2023/10/23 17:17:04;;;;;;;;;;;16.00;95.30;;;;;;5901177;22;19933;-94
2023/10/23 17:19:35;;;;;;;;;;;16.00;95.10;;;;;;5295774;23;19924;-95
2023/10/23 17:22:01;;;;;;;;;;;16.00;95.30;;;;;;4989834;28;20434;-94
2023/10/23 17:24:27;;;;;;;;;;;15.90;95.30;;;;;;4993533;28;19914;-95
2023/10/23 17:26:53;;;;;;;;;;;15.90;95.30;;;;;;4984167;28;19921;-96
2023/10/23 17:29:18;;;;;;;;;;;15.90;95.40;;;;;;4984607;28;19914;-94
2023/10/23 17:31:44;;;;;;;;;;;15.80;95.50;;;;;;4977245;28;19949;-93
2023/10/23 17:34:09;;;;;;;;;;;15.80;95.40;;;;;;4981380;28;20351;-93
2023/10/23 17:36:36;;;;;;;;;;;15.80;95.50;;;;;;4982152;28;20282;-95
2023/10/23 17:39:04;;;;;;;;;;;15.80;95.30;;;;;;4974845;28;19921;-94
2023/10/23 17:41:30;;;;;;;;;;;15.80;95.60;;;;;;4976166;28;19921;-91
2023/10/23 17:43:55;;;;;;;;;;;15.80;95.60;;;;;;4974389;28;19929;-94
2023/10/23 17:46:21;;;;;;;;;;;15.80;95.50;;;;;;4977022;28;19976;-95
2023/10/23 17:48:46;;;;;;;;;;;15.70;95.60;;;;;;4985027;28;19914;-95
2023/10/23 17:51:12;;;;;;;;;;;15.70;95.50;;;;;;4982903;28;19910;-94
2023/10/23 17:53:38;;;;;;;;;;;15.70;95.70;;;;;;4967433;28;19910;-93
2023/10/23 17:56:07;;;;;;;;;;;15.70;95.60;;;;;;4978281;28;19972;-91
2023/10/23 17:58:33;;;;;;;;;;;15.70;95.80;;;;;;4975005;28;20355;-94
2023/10/23 18:00:59;;;;;;;;;;;15.60;95.90;;;;;;4977447;28;19914;-95
2023/10/23 18:03:25;;;;;;;;;;;15.60;95.80;;;;;;4978634;28;19914;-94
2023/10/23 18:05:59;;;;;;;;;;;15.50;95.90;;;;;;4980594;28;19914;-95
2023/10/23 18:08:25;;;;;;;;;;;15.50;96.10;;;;;;4979105;28;19910;-94
2023/10/23 18:10:50;;;;;;;;;;;15.40;96.10;;;;;;4980330;28;19915;-94
2023/10/23 18:13:16;;;;;;;;;;;15.40;96.30;;;;;;4992194;28;19918;-96
2023/10/23 18:15:41;;;;;;;;;;;15.30;96.40;;;;;;4976445;28;19996;-93
2023/10/23 18:18:07;;;;;;;;;;;15.20;96.40;;;;;;4973754;28;19968;-92
2023/10/23 18:20:32;;;;;;;;;;;15.20;96.30;;;;;;4988290;28;19929;-92
2023/10/23 18:22:59;;;;;;;;;;;15.10;96.50;;;;;;5011953;28;19925;-93
2023/10/23 18:25:25;;;;;;;;;;;15.10;96.70;;;;;;5013515;28;19913;-92
2023/10/23 18:27:52;;;;;;;;;;;15.00;96.90;;;;;;4998225;28;20012;-95
2023/10/23 18:30:18;;;;;;;;;;;15.00;96.70;;;;;;5006273;28;19921;-95
2023/10/23 18:32:44;;;;;;;;;;;14.90;96.90;;;;;;4997085;28;19910;-92
2023/10/23 18:35:10;;;;;;;;;;;14.80;96.80;;;;;;5000991;28;19918;-92
2023/10/23 18:37:36;;;;;;;;;;;14.80;97.00;;;;;;5014741;28;19910;-90
2023/10/23 18:40:02;;;;;;;;;;;14.80;97.10;;;;;;5013635;28;19916;-91
2023/10/23 18:42:27;;;;;;;;;;;14.70;97.10;;;;;;5012766;28;20355;-90
2023/10/23 18:44:53;;;;;;;;;;;14.70;97.30;;;;;;5004867;28;19916;-91
2023/10/23 18:47:19;;;;;;;;;;;14.60;97.30;;;;;;5006585;28;19920;-90
2023/10/23 18:49:44;;;;;;;;;;;14.60;97.30;;;;;;5005307;28;19917;-90
2023/10/23 18:52:09;;;;;;;;;;;14.60;97.50;;;;;;5009287;28;19968;-90
2023/10/23 18:54:36;;;;;;;;;;;14.60;97.60;;;;;;5020334;28;19916;-96
2023/10/23 18:57:02;;;;;;;;;;;14.50;97.60;;;;;;5019145;28;20417;-91
2023/10/23 18:59:27;;;;;;;;;;;14.50;97.30;;;;;;4994891;28;19999;-92
2023/10/23 19:01:53;;;;;;;;;;;14.50;97.60;;;;;;4999148;28;19913;-89
2023/10/23 19:04:18;;;;;;;;;;;14.50;97.70;;;;;;5007675;28;19917;-90
2023/10/23 19:06:44;;;;;;;;;;;14.40;97.70;;;;;;5004997;28;20267;-91
2023/10/23 19:09:09;;;;;;;;;;;14.40;97.70;;;;;;5004629;28;19916;-90
2023/10/23 19:11:38;;;;;;;;;;;14.40;97.80;;;;;;5005708;28;20318;-95
2023/10/23 19:14:10;;;;;;;;;;;14.40;97.90;;;;;;5023668;28;19909;-94
2023/10/23 19:16:39;;;;;;;;;;;14.40;97.90;;;;;;5026638;28;20008;-91
2023/10/23 19:19:06;;;;;;;;;;;14.40;98.00;;;;;;5016529;28;20361;-95
2023/10/23 19:21:32;;;;;;;;;;;14.30;98.00;;;;;;5007628;28;20294;-90
2023/10/23 19:23:57;;;;;;;;;;;14.30;98.30;;;;;;5013498;28;19918;-92
2023/10/23 19:26:23;;;;;;;;;;;14.30;98.20;;;;;;5002153;28;19917;-89
2023/10/23 19:29:14;;;;;;;;;;;14.30;98.30;;;;;;5010629;28;19913;-94
2023/10/23 19:31:40;;;;;;;;;;;14.20;98.20;;;;;;5034174;28;19913;-90
2023/10/23 19:40:17;;;;;;;;;;;14.10;98.50;;;;;;5009613;28;19986;-95
2023/10/23 19:42:47;;;;;;;;;;;14.00;98.60;;;;;;5016139;28;19918;-95
2023/10/23 19:45:13;;;;;;;;;;;14.00;98.70;;;;;;4990500;28;19910;-91
2023/10/23 19:47:38;;;;;;;;;;;14.00;98.80;;;;;;4984950;28;20388;-91
2023/10/23 19:50:04;;;;;;;;;;;13.90;98.90;;;;;;4982957;28;19910;-91
2023/10/23 19:52:56;;;;;;;;;;;13.90;99.00;;;;;;5005799;28;19910;-96
2023/10/23 19:55:21;;;;;;;;;;;13.80;99.10;;;;;;4965797;28;20290;-96
2023/10/23 19:57:49;;;;;;;;;;;13.80;99.20;;;;;;4982427;28;19990;-95
2023/10/23 20:00:16;;;;;;;;;;;13.70;99.30;;;;;;4986638;28;19910;-94
2023/10/23 20:02:44;;;;;;;;;;;13.70;99.40;;;;;;4983561;28;20017;-95
2023/10/23 20:05:10;;;;;;;;;;;13.60;99.40;;;;;;4980555;28;19920;-89
2023/10/23 20:07:35;;;;;;;;;;;13.60;99.50;;;;;;5003460;28;20273;-89
2023/10/23 20:10:03;;;;;;;;;;;13.50;99.70;;;;;;5001469;28;19917;-90
